Time;durP1;ratioP1;P1;durP2;ratioP2;P2;SDS_P1;SDS_P2;PMS_P1;PMS_P2;Temp;Humidity;BMP_temperature;BMP_pressure;BME280_temperature;BME280_humidity;BME280_pressure;Samples;Min_cycle;Max_cycle;Signal;HPM_P1;HPM_P2
2023/09/29 00:00:23;;;;;;;13.88;6.15;;;15.90;99.90;;;;;;4974037;28;20049;-72
2023/09/29 00:02:50;;;;;;;17.77;6.32;;;15.80;99.90;;;;;;4974109;28;20068;-72
2023/09/29 00:05:17;;;;;;;17.92;6.50;;;15.90;99.90;;;;;;4974170;28;20053;-73
2023/09/29 00:07:43;;;;;;;17.00;6.70;;;15.90;99.90;;;;;;4973968;28;20039;-73
2023/09/29 00:10:13;;;;;;;16.13;6.75;;;15.80;99.90;;;;;;4973615;28;20042;-73
2023/09/29 00:12:40;;;;;;;11.63;5.68;;;15.80;99.90;;;;;;4974184;28;20421;-72
2023/09/29 00:15:06;;;;;;;20.55;6.38;;;15.90;99.90;;;;;;4974316;28;20081;-73
2023/09/29 00:17:32;;;;;;;16.75;7.22;;;15.80;99.90;;;;;;4973687;28;20034;-73
2023/09/29 00:20:02;;;;;;;15.70;6.47;;;15.80;99.90;;;;;;4973427;28;20115;-73
2023/09/29 00:22:28;;;;;;;14.68;7.38;;;15.80;99.90;;;;;;4974055;28;20408;-73
2023/09/29 00:24:54;;;;;;;13.88;7.50;;;15.80;99.90;;;;;;4973621;28;20052;-73
2023/09/29 00:27:20;;;;;;;22.70;7.72;;;15.80;99.90;;;;;;4973377;28;20034;-73
2023/09/29 00:29:46;;;;;;;15.48;6.75;;;15.80;99.90;;;;;;4972720;28;20042;-73
2023/09/29 00:32:11;;;;;;;18.83;6.57;;;15.80;99.90;;;;;;4957913;28;20456;-73
2023/09/29 00:34:37;;;;;;;15.75;6.57;;;15.80;99.90;;;;;;4973831;28;20042;-73
2023/09/29 00:37:04;;;;;;;17.85;6.50;;;15.80;99.90;;;;;;4973206;28;20133;-73
2023/09/29 00:39:30;;;;;;;22.63;6.55;;;15.80;99.90;;;;;;4973052;28;20117;-73
2023/09/29 00:41:56;;;;;;;15.40;6.78;;;15.70;99.90;;;;;;4990914;28;20458;-72
2023/09/29 00:44:21;;;;;;;14.15;6.68;;;15.70;99.90;;;;;;4990668;28;20050;-74
2023/09/29 00:46:47;;;;;;;11.35;5.80;;;15.80;99.90;;;;;;4973083;28;20398;-73
2023/09/29 00:49:14;;;;;;;19.27;5.97;;;15.80;99.90;;;;;;4973081;28;20064;-73
2023/09/29 00:51:39;;;;;;;15.48;6.25;;;15.80;99.90;;;;;;4973336;28;20042;-73
2023/09/29 00:54:08;;;;;;;17.88;6.55;;;15.80;99.90;;;;;;4973437;28;20042;-72
2023/09/29 00:56:39;;;;;;;19.17;6.60;;;15.80;99.90;;;;;;4973317;28;20444;-73
2023/09/29 00:59:09;;;;;;;14.73;5.93;;;15.80;99.90;;;;;;4973480;28;20409;-72
2023/09/29 01:01:35;;;;;;;21.02;7.53;;;15.80;99.90;;;;;;4973510;28;20042;-73
2023/09/29 01:04:00;;;;;;;16.73;6.38;;;15.80;99.90;;;;;;4972985;28;20570;-72
2023/09/29 01:06:29;;;;;;;22.00;6.95;;;15.80;99.90;;;;;;4972961;28;20041;-73
2023/09/29 01:08:56;;;;;;;18.17;7.72;;;15.80;99.90;;;;;;4972813;28;20581;-73
2023/09/29 01:11:22;;;;;;;16.08;5.57;;;15.80;99.90;;;;;;4972907;28;20043;-73
2023/09/29 01:13:47;;;;;;;13.55;6.00;;;15.80;99.90;;;;;;4973255;28;20153;-73
2023/09/29 01:16:13;;;;;;;19.52;6.50;;;15.80;99.90;;;;;;4972910;28;20034;-73
2023/09/29 01:18:39;;;;;;;15.80;6.50;;;15.90;99.90;;;;;;4990012;28;20417;-72
2023/09/29 01:21:06;;;;;;;14.57;6.78;;;15.80;99.90;;;;;;4990138;28;20452;-73
2023/09/29 01:23:33;;;;;;;14.80;7.35;;;15.80;99.90;;;;;;4973034;28;20042;-73
2023/09/29 01:25:59;;;;;;;15.10;5.90;;;15.80;99.90;;;;;;4989996;28;20073;-72
2023/09/29 01:28:25;;;;;;;16.88;7.45;;;15.80;99.90;;;;;;4972881;28;20046;-73
2023/09/29 01:30:53;;;;;;;12.48;6.03;;;15.80;99.90;;;;;;4972698;28;20486;-73
2023/09/29 01:33:21;;;;;;;20.45;7.15;;;15.80;99.90;;;;;;4956491;28;20074;-73
2023/09/29 01:35:48;;;;;;;19.60;7.00;;;15.80;99.90;;;;;;4972583;28;20186;-72
2023/09/29 01:38:14;;;;;;;14.63;6.15;;;15.80;99.90;;;;;;4972811;28;20050;-73
2023/09/29 01:40:40;;;;;;;17.38;6.95;;;15.80;99.90;;;;;;4972250;28;20098;-73
2023/09/29 01:43:06;;;;;;;14.52;6.60;;;15.80;99.90;;;;;;4972695;28;20135;-73
2023/09/29 01:48:12;;;;;;;17.50;6.72;;;15.70;99.90;;;;;;5110616;28;20093;-72
2023/09/29 01:50:38;;;;;;;18.55;6.47;;;15.70;99.90;;;;;;5111971;28;20473;-72
2023/09/29 01:53:04;;;;;;;17.40;6.68;;;15.70;99.90;;;;;;5112514;28;20044;-71
2023/09/29 01:55:30;;;;;;;19.70;7.80;;;15.70;99.90;;;;;;5111152;28;20116;-71
2023/09/29 01:57:56;;;;;;;18.70;6.55;;;15.70;99.90;;;;;;5112183;28;20043;-71
2023/09/29 02:00:25;;;;;;;21.08;6.72;;;15.70;99.90;;;;;;5111187;28;20046;-72
2023/09/29 02:02:52;;;;;;;17.52;6.65;;;15.60;99.90;;;;;;5112493;28;20038;-72
2023/09/29 02:05:18;;;;;;;17.45;7.25;;;15.70;99.90;;;;;;5112191;28;20040;-72
2023/09/29 02:07:45;;;;;;;15.73;6.35;;;15.70;99.90;;;;;;5112444;28;20043;-72
2023/09/29 02:10:11;;;;;;;16.38;6.68;;;15.70;99.90;;;;;;5112118;28;20043;-72
2023/09/29 02:12:48;;;;;;;17.20;6.45;;;15.70;99.90;;;;;;5112290;28;20039;-72
2023/09/29 02:15:17;;;;;;;16.63;7.03;;;15.70;99.90;;;;;;5112820;28;20071;-73
2023/09/29 02:17:44;;;;;;;11.30;5.75;;;15.70;99.90;;;;;;5112358;28;20416;-71
2023/09/29 02:20:15;;;;;;;17.75;6.78;;;15.70;99.90;;;;;;5112101;28;20144;-71
2023/09/29 02:22:41;;;;;;;21.98;6.82;;;15.70;99.90;;;;;;5111032;28;20043;-72
2023/09/29 02:25:10;;;;;;;25.13;7.38;;;15.70;99.90;;;;;;5112064;28;20039;-71
2023/09/29 02:27:36;;;;;;;21.70;6.93;;;15.70;99.90;;;;;;5112479;28;20035;-72
2023/09/29 02:30:02;;;;;;;17.20;6.00;;;15.70;99.90;;;;;;5112304;28;20036;-72
2023/09/29 02:32:27;;;;;;;21.40;6.82;;;15.70;99.90;;;;;;5112054;28;20071;-71
2023/09/29 02:34:55;;;;;;;22.80;7.25;;;15.70;99.90;;;;;;5112112;28;20114;-72
2023/09/29 02:37:21;;;;;;;14.55;7.00;;;15.70;99.90;;;;;;5112052;28;20407;-72
2023/09/29 02:39:47;;;;;;;17.45;6.57;;;15.80;99.90;;;;;;5111722;28;20034;-73
2023/09/29 02:42:12;;;;;;;21.15;6.75;;;15.70;99.90;;;;;;5111932;28;20039;-71
2023/09/29 02:44:39;;;;;;;14.40;6.43;;;15.80;99.90;;;;;;5112077;28;20498;-71
2023/09/29 02:47:05;;;;;;;17.90;7.93;;;15.80;99.90;;;;;;5110670;28;20043;-72
2023/09/29 02:49:33;;;;;;;17.13;6.13;;;15.80;99.90;;;;;;5110811;28;20131;-72
2023/09/29 02:51:59;;;;;;;18.70;6.00;;;15.80;99.90;;;;;;5114089;28;20372;-71
2023/09/29 02:54:25;;;;;;;10.23;5.15;;;15.80;99.90;;;;;;5115783;28;20423;-72
2023/09/29 02:56:51;;;;;;;17.73;6.20;;;15.80;99.90;;;;;;5114726;28;20047;-71
2023/09/29 02:59:16;;;;;;;16.65;5.78;;;15.80;99.90;;;;;;5115503;28;20115;-71
2023/09/29 03:01:44;;;;;;;15.02;5.43;;;15.80;99.90;;;;;;5114560;28;20463;-71
2023/09/29 03:04:10;;;;;;;18.60;5.85;;;15.80;99.90;;;;;;5114365;28;20414;-72
2023/09/29 03:06:35;;;;;;;16.42;6.15;;;15.80;99.90;;;;;;5115592;28;20032;-72
2023/09/29 03:09:01;;;;;;;14.77;7.35;;;15.80;99.90;;;;;;5115417;28;20036;-72
2023/09/29 03:11:26;;;;;;;18.45;5.65;;;15.80;99.90;;;;;;5115574;28;20035;-72
2023/09/29 03:13:55;;;;;;;17.08;5.60;;;15.80;99.90;;;;;;5115684;28;20398;-71
2023/09/29 03:16:24;;;;;;;16.60;5.85;;;15.80;99.90;;;;;;5114386;28;20437;-72
2023/09/29 03:18:50;;;;;;;20.10;6.38;;;15.80;99.90;;;;;;5114188;28;20050;-72
2023/09/29 03:21:16;;;;;;;15.32;6.20;;;15.80;99.90;;;;;;5115120;28;20399;-72
2023/09/29 03:23:43;;;;;;;20.30;5.97;;;15.70;99.90;;;;;;5115276;28;20395;-72
2023/09/29 03:26:09;;;;;;;19.58;6.82;;;15.80;99.90;;;;;;5115039;28;20040;-73
2023/09/29 03:28:35;;;;;;;14.68;5.75;;;15.80;99.90;;;;;;5114071;28;20122;-71
2023/09/29 03:31:07;;;;;;;18.42;6.93;;;15.70;99.90;;;;;;5113671;28;20089;-72
2023/09/29 03:33:33;;;;;;;15.25;6.47;;;15.80;99.90;;;;;;5115168;28;20075;-71
2023/09/29 03:35:59;;;;;;;13.98;6.22;;;15.80;99.90;;;;;;5115015;28;20113;-71
2023/09/29 03:38:25;;;;;;;12.68;6.78;;;15.80;99.90;;;;;;5114954;28;20417;-73
2023/09/29 03:40:52;;;;;;;18.23;7.13;;;15.80;99.90;;;;;;5114873;28;20043;-72
2023/09/29 03:43:18;;;;;;;14.02;5.75;;;15.80;99.90;;;;;;5115074;28;20043;-71
2023/09/29 03:45:46;;;;;;;16.17;6.20;;;15.80;99.90;;;;;;5114585;28;20517;-72
2023/09/29 03:48:12;;;;;;;12.82;6.57;;;15.80;99.90;;;;;;5114838;28;20096;-71
2023/09/29 03:50:39;;;;;;;11.15;5.75;;;15.80;99.90;;;;;;5113170;28;20039;-72
2023/09/29 03:53:05;;;;;;;16.92;6.25;;;15.80;99.90;;;;;;5096491;28;20079;-71
2023/09/29 03:55:31;;;;;;;13.73;6.25;;;15.80;99.90;;;;;;5114846;27;20074;-71
2023/09/29 03:57:57;;;;;;;17.38;8.00;;;15.80;99.90;;;;;;5114701;28;20088;-71
2023/09/29 04:00:22;;;;;;;20.00;6.35;;;15.80;99.90;;;;;;5114402;27;20060;-72
2023/09/29 04:02:51;;;;;;;13.25;6.72;;;15.80;99.90;;;;;;5112024;28;20071;-72
2023/09/29 04:05:18;;;;;;;13.80;6.03;;;15.80;99.90;;;;;;5113235;28;20031;-71
2023/09/29 04:07:44;;;;;;;19.52;7.28;;;15.80;99.90;;;;;;5114618;28;20031;-71
2023/09/29 04:10:11;;;;;;;14.52;5.28;;;15.80;99.90;;;;;;5114328;28;20027;-71
2023/09/29 04:12:40;;;;;;;12.88;5.97;;;15.80;99.90;;;;;;5114490;28;20036;-71
2023/09/29 04:15:07;;;;;;;14.93;5.82;;;15.90;99.90;;;;;;5114374;28;20035;-71
2023/09/29 04:17:33;;;;;;;12.75;6.22;;;15.90;99.90;;;;;;5114172;28;20035;-71
2023/09/29 04:19:59;;;;;;;16.70;6.05;;;15.90;99.90;;;;;;5112618;28;20127;-71
2023/09/29 04:22:25;;;;;;;16.65;6.10;;;15.90;99.90;;;;;;5112952;28;20077;-71
2023/09/29 04:24:51;;;;;;;15.77;6.18;;;15.90;99.90;;;;;;5113936;28;20044;-71
2023/09/29 04:27:17;;;;;;;16.40;6.40;;;15.90;99.90;;;;;;5114106;28;20031;-72
2023/09/29 04:29:42;;;;;;;19.80;6.95;;;15.90;99.90;;;;;;5113873;28;20063;-72
2023/09/29 04:32:08;;;;;;;17.50;6.90;;;15.90;99.90;;;;;;5114099;28;20030;-71
2023/09/29 04:34:34;;;;;;;15.07;6.30;;;15.90;99.90;;;;;;5112585;28;20051;-71
2023/09/29 04:36:59;;;;;;;17.85;6.95;;;15.90;99.90;;;;;;5113963;28;20039;-72
2023/09/29 04:39:25;;;;;;;13.43;6.82;;;15.90;99.90;;;;;;5113527;28;20388;-72
2023/09/29 04:41:51;;;;;;;11.30;5.38;;;15.90;99.90;;;;;;5113968;28;20027;-71
2023/09/29 04:44:17;;;;;;;10.93;6.03;;;15.90;99.90;;;;;;5113736;27;20132;-71
2023/09/29 04:46:43;;;;;;;16.20;6.95;;;16.00;99.90;;;;;;5113726;27;20114;-71
2023/09/29 04:49:09;;;;;;;12.70;7.38;;;16.00;99.90;;;;;;5113368;28;20039;-71
2023/09/29 04:51:36;;;;;;;16.55;7.57;;;16.00;99.90;;;;;;5113685;28;20564;-71
2023/09/29 04:54:02;;;;;;;16.85;6.70;;;16.00;99.90;;;;;;5113530;28;20088;-71
2023/09/29 04:56:28;;;;;;;14.10;6.38;;;16.00;99.90;;;;;;5113456;28;20086;-71
2023/09/29 04:58:54;;;;;;;19.30;7.25;;;16.10;99.90;;;;;;5113400;28;20093;-71
2023/09/29 05:01:20;;;;;;;18.55;7.93;;;16.10;99.90;;;;;;5113297;28;20035;-71
2023/09/29 05:03:47;;;;;;;15.32;7.28;;;16.10;99.90;;;;;;5113224;28;20080;-71
2023/09/29 05:06:13;;;;;;;22.90;7.78;;;16.10;99.90;;;;;;5112156;28;20046;-71
2023/09/29 05:08:39;;;;;;;16.33;6.95;;;16.10;99.90;;;;;;5113275;28;20031;-71
2023/09/29 05:11:05;;;;;;;19.20;7.95;;;16.20;99.90;;;;;;5111738;28;20108;-71
2023/09/29 05:13:32;;;;;;;15.60;7.10;;;16.10;99.90;;;;;;5113183;28;20039;-71
2023/09/29 05:16:00;;;;;;;18.60;8.10;;;16.10;99.90;;;;;;5111806;28;20056;-71
2023/09/29 05:18:26;;;;;;;16.15;8.07;;;16.10;99.90;;;;;;5111979;28;20047;-71
2023/09/29 05:20:52;;;;;;;20.25;8.43;;;16.20;99.90;;;;;;5112913;28;20537;-72
2023/09/29 05:23:17;;;;;;;15.85;7.45;;;16.20;99.90;;;;;;5113073;27;20040;-72
2023/09/29 05:25:47;;;;;;;19.65;7.32;;;16.20;99.90;;;;;;5111518;28;20075;-71
2023/09/29 05:28:13;;;;;;;15.23;7.40;;;16.20;99.90;;;;;;5112884;28;20071;-71
2023/09/29 05:30:39;;;;;;;16.98;8.25;;;16.20;99.90;;;;;;5112648;28;20063;-71
2023/09/29 05:33:05;;;;;;;15.75;8.73;;;16.20;99.90;;;;;;5112829;28;20089;-71
2023/09/29 05:35:31;;;;;;;26.95;8.13;;;16.20;99.90;;;;;;5112751;28;20042;-71
2023/09/29 05:37:57;;;;;;;18.85;7.82;;;16.30;99.90;;;;;;5110868;28;20092;-71
2023/09/29 05:40:22;;;;;;;19.10;7.60;;;16.30;99.90;;;;;;5112479;28;20440;-71
2023/09/29 05:42:48;;;;;;;18.10;7.13;;;16.30;99.90;;;;;;5112635;28;20040;-71
2023/09/29 05:45:13;;;;;;;13.93;6.78;;;16.40;99.90;;;;;;5111256;28;20040;-71
2023/09/29 05:47:39;;;;;;;16.13;6.88;;;16.40;99.90;;;;;;5112456;28;20080;-72
2023/09/29 05:50:05;;;;;;;12.52;6.22;;;16.40;99.90;;;;;;5112495;28;20521;-71
2023/09/29 05:52:32;;;;;;;18.00;7.07;;;16.50;99.90;;;;;;5112598;28;20036;-71
2023/09/29 05:54:57;;;;;;;18.05;6.55;;;16.50;99.90;;;;;;5111390;28;20040;-71
2023/09/29 05:57:23;;;;;;;15.95;6.18;;;16.50;99.90;;;;;;5111029;28;20524;-72
2023/09/29 05:59:49;;;;;;;16.38;7.00;;;16.50;99.90;;;;;;5111949;28;20406;-72
2023/09/29 06:02:14;;;;;;;16.38;7.90;;;16.50;99.90;;;;;;5112597;28;20490;-72
2023/09/29 06:04:40;;;;;;;16.58;8.05;;;16.50;99.90;;;;;;5111002;28;20457;-72
2023/09/29 06:07:05;;;;;;;15.90;7.85;;;16.40;99.90;;;;;;5112346;28;20628;-72
2023/09/29 06:09:31;;;;;;;13.57;8.48;;;16.40;99.90;;;;;;5112083;28;20036;-72
2023/09/29 06:11:56;;;;;;;12.85;8.00;;;16.40;99.90;;;;;;5111097;28;20073;-72
2023/09/29 06:14:22;;;;;;;15.18;7.45;;;16.40;99.90;;;;;;5112157;28;20047;-72
2023/09/29 06:16:48;;;;;;;15.93;8.25;;;16.40;99.90;;;;;;5112385;28;20064;-73
2023/09/29 06:19:15;;;;;;;15.55;8.65;;;16.40;99.90;;;;;;5112149;28;20418;-73
2023/09/29 06:21:40;;;;;;;25.83;10.00;;;16.40;99.90;;;;;;5112249;28;20111;-72
2023/09/29 06:24:06;;;;;;;17.80;8.65;;;16.40;99.90;;;;;;5112112;28;20063;-72
2023/09/29 06:26:31;;;;;;;17.02;9.15;;;16.40;99.90;;;;;;5113360;28;20101;-72
2023/09/29 06:28:57;;;;;;;19.85;8.50;;;16.40;99.90;;;;;;5114858;28;20402;-72
2023/09/29 06:31:23;;;;;;;15.45;9.65;;;16.40;99.90;;;;;;5116382;28;20028;-72
2023/09/29 06:33:48;;;;;;;21.60;8.63;;;16.40;99.90;;;;;;5116250;28;20046;-72
2023/09/29 06:36:14;;;;;;;16.75;8.73;;;16.40;99.90;;;;;;5116177;28;20043;-72
2023/09/29 06:38:40;;;;;;;24.75;9.32;;;16.40;99.90;;;;;;5116251;28;20039;-72
2023/09/29 06:41:06;;;;;;;18.15;10.23;;;16.40;99.90;;;;;;5116063;28;20058;-72
2023/09/29 06:43:32;;;;;;;19.02;8.90;;;16.40;99.90;;;;;;5116131;28;20036;-72
2023/09/29 06:45:58;;;;;;;18.48;9.02;;;16.40;99.90;;;;;;5115744;28;20047;-73
2023/09/29 06:48:23;;;;;;;19.85;10.27;;;16.40;99.90;;;;;;5116225;28;20036;-71
2023/09/29 06:50:49;;;;;;;18.83;9.75;;;16.40;99.90;;;;;;5115787;28;20447;-71
2023/09/29 06:53:15;;;;;;;21.67;9.77;;;16.40;99.90;;;;;;5114866;28;20078;-71
2023/09/29 06:55:40;;;;;;;18.60;9.48;;;16.40;99.90;;;;;;5115867;28;20190;-72
2023/09/29 06:58:06;;;;;;;14.00;9.05;;;16.40;99.90;;;;;;5115823;28;20067;-71
2023/09/29 07:00:32;;;;;;;17.33;9.75;;;16.40;99.90;;;;;;5113923;28;20036;-72
2023/09/29 07:02:57;;;;;;;18.70;10.30;;;16.40;99.90;;;;;;5101491;28;20089;-72
2023/09/29 07:05:25;;;;;;;17.63;8.88;;;16.40;99.90;;;;;;5094012;28;20388;-72
2023/09/29 07:07:53;;;;;;;16.75;9.68;;;16.50;99.90;;;;;;5095259;28;20067;-71
2023/09/29 07:10:18;;;;;;;14.23;8.85;;;16.50;99.90;;;;;;5093793;28;20036;-72
2023/09/29 07:12:45;;;;;;;16.27;9.32;;;16.50;99.90;;;;;;5111781;28;20522;-71
2023/09/29 07:15:11;;;;;;;17.33;9.38;;;16.50;99.90;;;;;;5109067;28;20043;-71
2023/09/29 07:17:37;;;;;;;23.67;10.43;;;16.60;99.90;;;;;;5111262;28;20031;-71
2023/09/29 07:20:03;;;;;;;13.10;8.18;;;16.70;99.90;;;;;;5095898;28;20046;-71
2023/09/29 07:22:29;;;;;;;16.08;8.98;;;16.70;99.90;;;;;;5104638;28;20085;-72
2023/09/29 07:24:57;;;;;;;12.60;8.85;;;16.70;99.90;;;;;;5115309;28;20040;-71
2023/09/29 07:27:24;;;;;;;17.20;8.77;;;16.80;99.90;;;;;;5114143;28;20115;-71
2023/09/29 07:29:49;;;;;;;13.82;8.73;;;16.80;99.90;;;;;;5113701;28;20035;-71
2023/09/29 07:32:15;;;;;;;17.08;9.55;;;16.80;99.90;;;;;;5108059;28;20120;-72
2023/09/29 07:34:41;;;;;;;14.77;8.52;;;16.90;99.90;;;;;;5113874;28;20028;-72
2023/09/29 07:37:06;;;;;;;14.75;8.65;;;17.00;99.90;;;;;;5114510;28;20036;-72
2023/09/29 07:39:32;;;;;;;13.15;8.40;;;17.00;99.90;;;;;;5114799;28;20036;-72
2023/09/29 07:41:57;;;;;;;14.18;8.23;;;17.00;99.90;;;;;;5113660;28;20039;-71
2023/09/29 07:44:23;;;;;;;13.48;7.78;;;17.20;99.90;;;;;;5114833;28;20143;-71
2023/09/29 07:46:53;;;;;;;8.80;6.07;;;17.20;99.90;;;;;;5093352;22;20049;-73
2023/09/29 07:49:20;;;;;;;14.13;6.60;;;17.20;99.90;;;;;;4957526;28;20129;-72
2023/09/29 07:51:45;;;;;;;10.10;6.57;;;17.40;99.90;;;;;;4974067;28;20050;-73
2023/09/29 07:54:11;;;;;;;11.15;6.40;;;17.40;99.90;;;;;;4974295;28;20042;-73
2023/09/29 07:56:37;;;;;;;14.00;6.35;;;17.60;99.90;;;;;;4975431;28;20387;-73
2023/09/29 07:59:02;;;;;;;12.80;4.25;;;17.70;99.90;;;;;;4990102;28;20045;-73
2023/09/29 08:01:28;;;;;;;7.70;5.75;;;18.00;99.90;;;;;;4991458;28;20038;-73
2023/09/29 08:03:53;;;;;;;9.52;4.93;;;18.20;99.90;;;;;;4991286;28;20559;-73
2023/09/29 08:06:22;;;;;;;8.40;4.65;;;18.40;99.90;;;;;;4990862;28;20500;-73
2023/09/29 08:08:47;;;;;;;9.77;4.63;;;18.50;99.90;;;;;;4973974;28;20091;-75
2023/09/29 08:11:14;;;;;;;9.85;5.15;;;18.60;99.90;;;;;;4989945;28;20046;-74
2023/09/29 08:13:39;;;;;;;9.30;4.78;;;18.70;99.90;;;;;;5058547;28;20493;-73
2023/09/29 08:16:05;;;;;;;8.05;4.78;;;18.90;99.90;;;;;;4974145;28;20100;-74
2023/09/29 08:18:30;;;;;;;6.65;4.10;;;19.10;99.90;;;;;;4990202;28;20536;-73
2023/09/29 08:20:56;;;;;;;6.43;4.50;;;19.20;99.90;;;;;;4973667;28;20038;-73
2023/09/29 08:23:22;;;;;;;9.20;3.97;;;19.40;99.90;;;;;;4989972;28;20053;-73
2023/09/29 08:25:48;;;;;;;9.02;3.90;;;19.40;99.90;;;;;;4989893;28;20078;-73
2023/09/29 08:28:13;;;;;;;6.38;3.85;;;19.40;99.90;;;;;;4990003;28;20050;-72
2023/09/29 08:30:40;;;;;;;9.27;4.07;;;19.40;99.90;;;;;;4989817;28;20045;-72
2023/09/29 08:33:05;;;;;;;8.68;4.00;;;19.30;99.90;;;;;;4989843;28;20038;-73
2023/09/29 08:35:31;;;;;;;9.95;4.60;;;19.30;99.90;;;;;;4989887;28;20038;-73
2023/09/29 08:37:57;;;;;;;9.02;3.70;;;19.50;99.90;;;;;;4989363;28;20034;-73
2023/09/29 08:40:22;;;;;;;9.27;4.38;;;19.60;99.90;;;;;;4988956;28;20043;-73
2023/09/29 08:42:51;;;;;;;6.45;3.65;;;19.70;99.90;;;;;;4989154;28;20050;-72
2023/09/29 08:45:18;;;;;;;5.18;3.30;;;19.80;99.90;;;;;;4989352;28;20465;-73
2023/09/29 08:47:51;;;;;;;11.15;3.92;;;19.90;99.90;;;;;;4988988;28;20053;-73
2023/09/29 08:50:16;;;;;;;;;;;20.00;99.90;;;;;;4970498;28;20077;-72
2023/09/29 08:52:44;;;;;;;5.90;3.00;;;20.00;99.90;;;;;;4972789;28;20008;-73
2023/09/29 08:55:12;;;;;;;6.40;3.65;;;20.10;99.90;;;;;;4973109;28;20050;-73
2023/09/29 08:57:40;;;;;;;10.48;4.28;;;20.10;99.90;;;;;;4990840;28;20049;-72
2023/09/29 09:00:07;;;;;;;5.72;3.05;;;20.20;99.90;;;;;;4990557;28;20051;-72
2023/09/29 09:02:33;;;;;;;7.85;3.38;;;20.20;99.90;;;;;;4989728;28;20047;-73
2023/09/29 09:04:59;;;;;;;6.53;3.40;;;20.20;99.90;;;;;;4989208;28;20133;-73
2023/09/29 09:07:25;;;;;;;6.45;3.05;;;20.30;99.90;;;;;;4989418;28;20061;-73
2023/09/29 09:09:53;;;;;;;8.07;3.38;;;20.30;99.90;;;;;;4989069;28;20041;-73
2023/09/29 09:12:31;;;;;;;8.75;3.70;;;20.40;99.90;;;;;;5003007;28;20065;-73
2023/09/29 09:14:57;;;;;;;7.50;3.35;;;20.30;99.90;;;;;;4986131;28;20069;-73
2023/09/29 09:17:23;;;;;;;9.43;3.17;;;20.30;99.90;;;;;;4988586;28;20529;-73
2023/09/29 09:19:51;;;;;;;7.72;3.15;;;20.30;99.90;;;;;;4989300;28;20034;-72
2023/09/29 09:22:21;;;;;;;5.55;3.30;;;20.20;99.90;;;;;;4989949;28;20501;-72
2023/09/29 09:24:48;;;;;;;7.07;3.50;;;20.10;99.90;;;;;;4988555;28;20111;-72
2023/09/29 09:27:14;;;;;;;6.97;3.30;;;20.00;99.90;;;;;;4988311;28;20038;-73
2023/09/29 09:29:46;;;;;;;5.20;3.25;;;20.10;99.90;;;;;;4988251;28;20037;-72
2023/09/29 09:32:12;;;;;;;6.68;2.88;;;20.00;99.90;;;;;;4989722;28;20038;-72
2023/09/29 09:34:38;;;;;;;4.60;2.55;;;20.00;99.90;;;;;;4986816;28;20077;-72
2023/09/29 09:37:06;;;;;;;6.97;3.40;;;20.20;99.90;;;;;;4988327;28;20451;-73
2023/09/29 09:39:33;;;;;;;5.78;3.08;;;20.30;99.90;;;;;;4985546;28;20081;-72
2023/09/29 09:41:59;;;;;;;6.18;3.58;;;20.30;99.90;;;;;;4989704;28;20080;-72
2023/09/29 09:44:28;;;;;;;6.22;3.10;;;20.30;99.90;;;;;;4989752;28;20034;-72
2023/09/29 09:47:00;;;;;;;8.43;2.92;;;20.50;99.90;;;;;;4989617;28;20042;-72
2023/09/29 09:49:42;;;;;;;4.47;3.55;;;20.60;99.90;;;;;;4988687;28;20039;-72
2023/09/29 09:52:12;;;;;;;7.18;3.00;;;20.70;99.90;;;;;;4988587;28;20076;-72
2023/09/29 09:54:51;;;;;;;5.82;2.80;;;20.80;99.90;;;;;;4988969;28;20409;-72
2023/09/29 09:57:30;;;;;;;5.70;2.88;;;20.80;99.90;;;;;;4988814;28;20405;-72
2023/09/29 10:00:00;;;;;;;5.53;3.05;;;20.80;99.90;;;;;;4988453;28;20050;-72
2023/09/29 10:02:27;;;;;;;5.50;2.97;;;20.80;99.90;;;;;;4988440;28;20046;-73
2023/09/29 10:04:54;;;;;;;5.28;2.97;;;20.80;99.90;;;;;;4988647;28;20176;-73
2023/09/29 10:07:21;;;;;;;5.22;2.90;;;20.90;99.90;;;;;;4988277;28;20053;-72
2023/09/29 10:09:49;;;;;;;3.80;2.92;;;21.00;99.90;;;;;;4988185;28;20042;-73
2023/09/29 10:12:26;;;;;;;5.13;3.13;;;21.00;99.90;;;;;;4972236;28;20494;-72
2023/09/29 10:14:52;;;;;;;8.23;3.10;;;21.00;99.90;;;;;;4988402;28;20046;-72
2023/09/29 10:17:20;;;;;;;6.93;2.97;;;21.00;99.90;;;;;;4987954;28;20048;-72
2023/09/29 10:19:50;;;;;;;6.60;3.20;;;21.00;99.90;;;;;;4988723;28;20537;-73
2023/09/29 10:22:23;;;;;;;5.13;3.35;;;20.90;99.90;;;;;;4987135;28;20045;-72
2023/09/29 10:24:49;;;;;;;4.28;3.42;;;20.70;99.90;;;;;;4987913;28;20035;-72
2023/09/29 10:27:32;;;;;;;7.32;3.58;;;20.70;99.90;;;;;;4988021;28;20531;-73
2023/09/29 10:30:16;;;;;;;;;;;20.70;99.90;;;;;;4985069;28;20039;-73
2023/09/29 10:32:43;;;;;;;6.45;3.45;;;20.60;99.90;;;;;;5012913;28;20304;-73
2023/09/29 10:35:18;;;;;;;8.38;3.55;;;20.60;99.90;;;;;;4988131;28;20045;-73
2023/09/29 10:37:45;;;;;;;9.00;3.75;;;20.60;99.90;;;;;;4987940;28;20082;-73
2023/09/29 10:40:32;;;;;;;10.15;3.50;;;20.50;99.90;;;;;;4986648;28;20045;-73
2023/09/29 10:43:04;;;;;;;7.63;3.50;;;20.50;99.90;;;;;;4985385;28;20100;-73
2023/09/29 10:45:37;;;;;;;6.18;3.67;;;20.50;99.90;;;;;;4987858;28;20043;-73
2023/09/29 10:48:07;;;;;;;9.60;3.78;;;20.40;99.90;;;;;;4987095;28;20212;-73
2023/09/29 10:50:42;;;;;;;6.25;3.42;;;20.40;99.90;;;;;;4992311;28;20130;-73
2023/09/29 10:53:08;;;;;;;5.65;3.35;;;20.40;99.90;;;;;;4981586;28;20068;-72
2023/09/29 10:55:43;;;;;;;4.63;3.45;;;20.40;99.90;;;;;;4980636;28;20066;-73
2023/09/29 10:58:11;;;;;;;5.60;3.42;;;20.50;99.90;;;;;;4981966;28;20445;-73
2023/09/29 11:00:50;;;;;;;7.95;3.92;;;20.40;99.90;;;;;;4969668;28;20041;-73
2023/09/29 11:03:21;;;;;;;7.13;3.33;;;20.30;99.90;;;;;;4969920;28;20085;-73
2023/09/29 11:05:53;;;;;;;5.65;3.35;;;20.20;99.90;;;;;;4969540;28;20559;-73
2023/09/29 11:08:20;;;;;;;5.53;3.38;;;20.20;99.90;;;;;;4968075;28;20073;-73
2023/09/29 11:10:56;;;;;;;6.03;3.60;;;20.10;99.90;;;;;;4968456;28;20562;-73
2023/09/29 11:13:23;;;;;;;5.13;3.60;;;20.00;99.90;;;;;;4987077;28;20030;-73
2023/09/29 11:15:49;;;;;;;9.25;3.60;;;20.00;99.90;;;;;;4990880;28;20050;-73
2023/09/29 11:18:32;;;;;;;7.63;4.05;;;20.00;99.90;;;;;;4985622;28;20050;-73
2023/09/29 11:20:59;;;;;;;6.07;4.10;;;20.00;99.90;;;;;;4972518;28;20090;-73
2023/09/29 11:23:24;;;;;;;8.48;4.10;;;20.10;99.90;;;;;;4980918;28;20074;-73
2023/09/29 11:25:54;;;;;;;8.65;4.10;;;20.00;99.90;;;;;;4991667;28;20049;-73
2023/09/29 11:28:20;;;;;;;8.20;4.65;;;20.00;99.90;;;;;;4990619;28;20442;-73
2023/09/29 11:30:46;;;;;;;11.05;4.57;;;20.10;99.90;;;;;;4991636;28;20042;-73
2023/09/29 11:33:13;;;;;;;9.63;4.55;;;20.20;99.90;;;;;;4992040;28;20049;-73
2023/09/29 11:35:45;;;;;;;7.35;3.88;;;20.30;99.90;;;;;;4991916;28;20064;-73
2023/09/29 11:38:15;;;;;;;6.32;4.05;;;20.20;99.90;;;;;;4990167;28;20121;-72
2023/09/29 11:40:41;;;;;;;10.25;4.72;;;20.20;99.90;;;;;;4983379;28;20071;-73
2023/09/29 11:43:07;;;;;;;7.25;4.60;;;20.20;99.90;;;;;;4990520;28;20047;-73
2023/09/29 11:45:33;;;;;;;11.05;5.30;;;20.10;99.90;;;;;;4991605;28;20042;-73
2023/09/29 11:47:58;;;;;;;9.63;4.60;;;20.10;99.90;;;;;;4991352;28;20049;-73
2023/09/29 11:50:24;;;;;;;6.88;4.35;;;20.10;99.90;;;;;;4991686;28;20499;-73
2023/09/29 11:52:49;;;;;;;6.28;4.47;;;20.10;99.90;;;;;;4990771;28;20538;-73
2023/09/29 11:55:15;;;;;;;6.60;4.40;;;20.00;99.90;;;;;;4991615;28;20067;-73
2023/09/29 11:57:40;;;;;;;12.00;5.05;;;20.00;99.90;;;;;;4989950;28;20092;-73
2023/09/29 12:00:14;;;;;;;8.43;4.55;;;19.90;99.90;;;;;;4990312;28;20034;-73
2023/09/29 12:02:40;;;;;;;9.00;4.30;;;19.80;99.90;;;;;;4990154;28;20038;-72
2023/09/29 12:05:07;;;;;;;9.45;5.15;;;19.70;99.90;;;;;;4991451;28;20076;-72
2023/09/29 12:07:33;;;;;;;7.55;5.13;;;19.70;99.90;;;;;;4990167;28;20035;-73
2023/09/29 12:09:59;;;;;;;6.72;4.63;;;19.60;99.90;;;;;;4989960;28;20039;-73
2023/09/29 12:12:25;;;;;;;8.65;5.13;;;19.60;99.90;;;;;;4991488;28;20030;-72
2023/09/29 12:14:54;;;;;;;11.52;5.45;;;19.60;99.90;;;;;;4990557;28;20042;-73
2023/09/29 12:17:20;;;;;;;12.18;5.80;;;19.50;99.90;;;;;;4990950;28;20051;-73
2023/09/29 12:19:46;;;;;;;7.80;5.70;;;19.50;99.90;;;;;;4989841;28;20043;-73
2023/09/29 12:22:13;;;;;;;10.95;5.78;;;19.40;99.90;;;;;;4991399;28;20054;-73
2023/09/29 12:24:39;;;;;;;9.27;5.75;;;19.40;99.90;;;;;;4988807;28;20064;-73
2023/09/29 12:27:07;;;;;;;11.50;5.43;;;19.40;99.90;;;;;;4990045;28;20046;-73
2023/09/29 12:29:34;;;;;;;13.00;6.22;;;19.40;99.90;;;;;;4990756;28;20080;-73
2023/09/29 12:31:59;;;;;;;9.35;5.68;;;19.50;99.90;;;;;;4973955;28;20406;-73
2023/09/29 12:34:25;;;;;;;8.05;6.45;;;19.50;99.90;;;;;;4989890;28;20034;-73
2023/09/29 12:36:51;;;;;;;14.18;7.20;;;19.40;99.90;;;;;;4990864;28;20511;-73
2023/09/29 12:39:17;;;;;;;12.75;7.40;;;19.50;99.90;;;;;;4989248;28;20034;-71
2023/09/29 12:41:43;;;;;;;11.82;6.78;;;19.60;99.90;;;;;;4990825;28;20221;-71